sensor_id;sensor_type;location;lat;lon;timestamp;P1;durP1;ratioP1;P2;durP2;ratioP2
18574;SDS011;9417;16.484;102.872;2023-06-10T00:00:36;11.07;;;7.68;;
18574;SDS011;9417;16.484;102.872;2023-06-10T00:02:45;11.15;;;6.82;;
18574;SDS011;9417;16.484;102.872;2023-06-10T00:04:52;11.80;;;7.72;;
18574;SDS011;9417;16.484;102.872;2023-06-10T00:07:01;10.55;;;7.55;;
18574;SDS011;9417;16.484;102.872;2023-06-10T00:09:13;11.15;;;8.50;;
18574;SDS011;9417;16.484;102.872;2023-06-10T00:11:22;12.93;;;8.60;;
18574;SDS011;9417;16.484;102.872;2023-06-10T00:13:30;13.13;;;8.43;;
18574;SDS011;9417;16.484;102.872;2023-06-10T00:15:37;13.43;;;7.97;;
18574;SDS011;9417;16.484;102.872;2023-06-10T00:17:45;13.15;;;8.07;;
18574;SDS011;9417;16.484;102.872;2023-06-10T00:19:53;12.15;;;7.95;;
18574;SDS011;9417;16.484;102.872;2023-06-10T00:22:01;11.73;;;7.43;;
18574;SDS011;9417;16.484;102.872;2023-06-10T00:24:09;11.82;;;7.72;;
18574;SDS011;9417;16.484;102.872;2023-06-10T00:26:19;11.93;;;8.30;;
18574;SDS011;9417;16.484;102.872;2023-06-10T00:28:26;10.60;;;8.10;;
18574;SDS011;9417;16.484;102.872;2023-06-10T00:30:34;11.32;;;8.52;;
18574;SDS011;9417;16.484;102.872;2023-06-10T00:32:45;14.27;;;9.87;;
18574;SDS011;9417;16.484;102.872;2023-06-10T00:34:52;11.60;;;7.28;;
18574;SDS011;9417;16.484;102.872;2023-06-10T00:37:00;15.13;;;7.93;;
18574;SDS011;9417;16.484;102.872;2023-06-10T00:39:08;10.88;;;7.72;;
18574;SDS011;9417;16.484;102.872;2023-06-10T00:41:15;18.17;;;16.35;;
18574;SDS011;9417;16.484;102.872;2023-06-10T00:43:25;13.93;;;12.18;;
18574;SDS011;9417;16.484;102.872;2023-06-10T00:45:33;16.02;;;11.73;;
18574;SDS011;9417;16.484;102.872;2023-06-10T00:47:40;12.00;;;8.55;;
18574;SDS011;9417;16.484;102.872;2023-06-10T00:49:48;12.18;;;8.02;;
18574;SDS011;9417;16.484;102.872;2023-06-10T00:51:56;11.57;;;7.90;;
18574;SDS011;9417;16.484;102.872;2023-06-10T00:54:04;9.60;;;8.15;;
18574;SDS011;9417;16.484;102.872;2023-06-10T00:56:13;10.60;;;7.28;;
18574;SDS011;9417;16.484;102.872;2023-06-10T00:58:23;12.43;;;8.23;;
18574;SDS011;9417;16.484;102.872;2023-06-10T01:00:31;12.77;;;7.70;;
18574;SDS011;9417;16.484;102.872;2023-06-10T01:02:38;11.07;;;7.72;;
18574;SDS011;9417;16.484;102.872;2023-06-10T01:04:45;11.48;;;7.68;;
18574;SDS011;9417;16.484;102.872;2023-06-10T01:06:54;11.23;;;7.82;;
18574;SDS011;9417;16.484;102.872;2023-06-10T01:09:11;10.77;;;8.02;;
18574;SDS011;9417;16.484;102.872;2023-06-10T01:11:25;15.25;;;7.93;;
18574;SDS011;9417;16.484;102.872;2023-06-10T01:13:42;11.90;;;8.18;;
18574;SDS011;9417;16.484;102.872;2023-06-10T01:17:59;12.20;;;8.25;;
18574;SDS011;9417;16.484;102.872;2023-06-10T01:20:07;12.93;;;7.78;;
18574;SDS011;9417;16.484;102.872;2023-06-10T01:22:17;10.10;;;7.68;;
18574;SDS011;9417;16.484;102.872;2023-06-10T01:24:27;12.02;;;7.95;;
18574;SDS011;9417;16.484;102.872;2023-06-10T01:26:37;12.48;;;8.00;;
18574;SDS011;9417;16.484;102.872;2023-06-10T01:28:47;11.25;;;7.85;;
18574;SDS011;9417;16.484;102.872;2023-06-10T01:31:00;13.15;;;8.38;;
18574;SDS011;9417;16.484;102.872;2023-06-10T01:33:15;9.98;;;7.75;;
18574;SDS011;9417;16.484;102.872;2023-06-10T01:35:30;15.07;;;8.90;;
18574;SDS011;9417;16.484;102.872;2023-06-10T01:37:40;14.63;;;9.02;;
18574;SDS011;9417;16.484;102.872;2023-06-10T01:39:52;13.38;;;9.43;;
18574;SDS011;9417;16.484;102.872;2023-06-10T01:42:03;11.70;;;8.13;;
18574;SDS011;9417;16.484;102.872;2023-06-10T01:44:11;9.48;;;7.72;;
18574;SDS011;9417;16.484;102.872;2023-06-10T01:46:23;17.70;;;15.82;;
18574;SDS011;9417;16.484;102.872;2023-06-10T01:48:30;18.60;;;16.75;;
18574;SDS011;9417;16.484;102.872;2023-06-10T01:50:38;18.77;;;16.77;;
18574;SDS011;9417;16.484;102.872;2023-06-10T01:52:47;12.88;;;9.50;;
18574;SDS011;9417;16.484;102.872;2023-06-10T01:54:55;10.93;;;9.52;;
18574;SDS011;9417;16.484;102.872;2023-06-10T01:57:02;18.40;;;16.40;;
18574;SDS011;9417;16.484;102.872;2023-06-10T01:59:10;15.90;;;11.35;;
18574;SDS011;9417;16.484;102.872;2023-06-10T02:01:17;12.45;;;7.35;;
18574;SDS011;9417;16.484;102.872;2023-06-10T02:03:25;11.13;;;7.97;;
18574;SDS011;9417;16.484;102.872;2023-06-10T02:05:32;9.07;;;7.40;;
18574;SDS011;9417;16.484;102.872;2023-06-10T02:07:40;9.60;;;7.93;;
18574;SDS011;9417;16.484;102.872;2023-06-10T02:09:49;12.88;;;8.13;;
18574;SDS011;9417;16.484;102.872;2023-06-10T02:11:57;11.13;;;8.32;;
18574;SDS011;9417;16.484;102.872;2023-06-10T02:14:04;11.38;;;7.75;;
18574;SDS011;9417;16.484;102.872;2023-06-10T02:16:11;13.77;;;8.15;;
18574;SDS011;9417;16.484;102.872;2023-06-10T02:18:20;11.95;;;8.40;;
18574;SDS011;9417;16.484;102.872;2023-06-10T02:20:28;14.07;;;7.60;;
18574;SDS011;9417;16.484;102.872;2023-06-10T02:22:35;14.75;;;7.75;;
18574;SDS011;9417;16.484;102.872;2023-06-10T02:24:43;11.43;;;7.97;;
18574;SDS011;9417;16.484;102.872;2023-06-10T02:26:52;10.13;;;7.80;;
18574;SDS011;9417;16.484;102.872;2023-06-10T02:28:59;13.32;;;7.90;;
18574;SDS011;9417;16.484;102.872;2023-06-10T02:31:07;15.40;;;10.82;;
18574;SDS011;9417;16.484;102.872;2023-06-10T02:33:14;10.75;;;7.38;;
18574;SDS011;9417;16.484;102.872;2023-06-10T02:35:22;10.13;;;7.75;;
18574;SDS011;9417;16.484;102.872;2023-06-10T02:37:30;13.30;;;8.13;;
18574;SDS011;9417;16.484;102.872;2023-06-10T02:39:37;11.48;;;7.65;;
18574;SDS011;9417;16.484;102.872;2023-06-10T02:41:46;16.20;;;7.97;;
18574;SDS011;9417;16.484;102.872;2023-06-10T02:43:55;11.70;;;7.68;;
18574;SDS011;9417;16.484;102.872;2023-06-10T02:46:03;10.40;;;7.10;;
18574;SDS011;9417;16.484;102.872;2023-06-10T02:48:11;11.05;;;7.65;;
18574;SDS011;9417;16.484;102.872;2023-06-10T02:50:18;12.60;;;7.53;;
18574;SDS011;9417;16.484;102.872;2023-06-10T02:52:58;11.13;;;7.43;;
18574;SDS011;9417;16.484;102.872;2023-06-10T02:55:08;9.73;;;7.18;;
18574;SDS011;9417;16.484;102.872;2023-06-10T02:57:22;9.25;;;7.22;;
18574;SDS011;9417;16.484;102.872;2023-06-10T02:59:31;11.27;;;7.20;;
18574;SDS011;9417;16.484;102.872;2023-06-10T03:01:39;9.18;;;6.97;;
18574;SDS011;9417;16.484;102.872;2023-06-10T03:03:47;11.05;;;7.72;;
18574;SDS011;9417;16.484;102.872;2023-06-10T03:05:55;11.15;;;7.28;;
18574;SDS011;9417;16.484;102.872;2023-06-10T03:08:03;7.18;;;6.22;;
18574;SDS011;9417;16.484;102.872;2023-06-10T03:10:14;8.05;;;6.35;;
18574;SDS011;9417;16.484;102.872;2023-06-10T03:12:22;10.00;;;6.85;;
18574;SDS011;9417;16.484;102.872;2023-06-10T03:14:31;11.40;;;7.28;;
18574;SDS011;9417;16.484;102.872;2023-06-10T03:16:39;9.90;;;7.10;;
18574;SDS011;9417;16.484;102.872;2023-06-10T03:18:48;8.45;;;6.47;;
18574;SDS011;9417;16.484;102.872;2023-06-10T03:20:54;16.08;;;14.73;;
18574;SDS011;9417;16.484;102.872;2023-06-10T03:23:02;16.27;;;14.98;;
18574;SDS011;9417;16.484;102.872;2023-06-10T03:25:12;16.45;;;14.95;;
18574;SDS011;9417;16.484;102.872;2023-06-10T03:27:23;18.42;;;17.00;;
18574;SDS011;9417;16.484;102.872;2023-06-10T03:29:36;8.95;;;5.93;;
18574;SDS011;9417;16.484;102.872;2023-06-10T03:31:45;8.32;;;6.53;;
18574;SDS011;9417;16.484;102.872;2023-06-10T03:33:52;17.92;;;16.23;;
18574;SDS011;9417;16.484;102.872;2023-06-10T03:36:00;16.42;;;15.13;;
18574;SDS011;9417;16.484;102.872;2023-06-10T03:38:09;14.18;;;11.80;;
18574;SDS011;9417;16.484;102.872;2023-06-10T03:40:17;13.00;;;11.70;;
18574;SDS011;9417;16.484;102.872;2023-06-10T03:42:25;15.90;;;14.52;;
18574;SDS011;9417;16.484;102.872;2023-06-10T03:44:33;16.42;;;15.13;;
18574;SDS011;9417;16.484;102.872;2023-06-10T03:46:42;15.90;;;14.63;;
18574;SDS011;9417;16.484;102.872;2023-06-10T03:48:51;17.85;;;16.45;;
18574;SDS011;9417;16.484;102.872;2023-06-10T03:50:58;17.15;;;15.80;;
18574;SDS011;9417;16.484;102.872;2023-06-10T03:53:06;18.23;;;16.35;;
18574;SDS011;9417;16.484;102.872;2023-06-10T03:55:16;18.15;;;16.75;;
18574;SDS011;9417;16.484;102.872;2023-06-10T03:57:25;15.05;;;13.75;;
18574;SDS011;9417;16.484;102.872;2023-06-10T03:59:33;15.90;;;14.40;;
18574;SDS011;9417;16.484;102.872;2023-06-10T04:01:42;15.30;;;14.10;;
18574;SDS011;9417;16.484;102.872;2023-06-10T04:03:49;16.80;;;15.23;;
18574;SDS011;9417;16.484;102.872;2023-06-10T04:05:58;25.50;;;23.30;;
18574;SDS011;9417;16.484;102.872;2023-06-10T04:08:05;25.52;;;23.58;;
18574;SDS011;9417;16.484;102.872;2023-06-10T04:10:13;11.00;;;10.00;;
18574;SDS011;9417;16.484;102.872;2023-06-10T04:12:21;12.38;;;10.95;;
18574;SDS011;9417;16.484;102.872;2023-06-10T04:14:28;13.05;;;11.95;;
18574;SDS011;9417;16.484;102.872;2023-06-10T04:16:36;11.75;;;10.75;;
18574;SDS011;9417;16.484;102.872;2023-06-10T04:18:47;12.20;;;10.98;;
18574;SDS011;9417;16.484;102.872;2023-06-10T04:20:55;13.38;;;10.82;;
18574;SDS011;9417;16.484;102.872;2023-06-10T04:23:02;12.35;;;11.25;;
18574;SDS011;9417;16.484;102.872;2023-06-10T04:25:11;12.10;;;10.63;;
18574;SDS011;9417;16.484;102.872;2023-06-10T04:27:19;10.35;;;9.13;;
18574;SDS011;9417;16.484;102.872;2023-06-10T04:29:27;11.70;;;10.60;;
18574;SDS011;9417;16.484;102.872;2023-06-10T04:31:35;11.38;;;10.25;;
18574;SDS011;9417;16.484;102.872;2023-06-10T04:33:44;15.43;;;14.13;;
18574;SDS011;9417;16.484;102.872;2023-06-10T04:35:53;14.93;;;13.73;;
18574;SDS011;9417;16.484;102.872;2023-06-10T04:38:04;14.32;;;13.23;;
18574;SDS011;9417;16.484;102.872;2023-06-10T04:40:11;14.18;;;12.90;;
18574;SDS011;9417;16.484;102.872;2023-06-10T04:42:21;13.27;;;12.00;;
18574;SDS011;9417;16.484;102.872;2023-06-10T04:44:29;14.13;;;12.73;;
18574;SDS011;9417;16.484;102.872;2023-06-10T04:46:36;13.15;;;11.70;;
18574;SDS011;9417;16.484;102.872;2023-06-10T04:48:44;13.38;;;12.18;;
18574;SDS011;9417;16.484;102.872;2023-06-10T04:50:54;16.38;;;14.07;;
18574;SDS011;9417;16.484;102.872;2023-06-10T04:53:02;15.55;;;14.23;;
18574;SDS011;9417;16.484;102.872;2023-06-10T04:55:11;15.25;;;13.85;;
18574;SDS011;9417;16.484;102.872;2023-06-10T04:57:19;14.70;;;13.20;;
18574;SDS011;9417;16.484;102.872;2023-06-10T04:59:26;17.00;;;15.23;;
18574;SDS011;9417;16.484;102.872;2023-06-10T05:01:34;14.90;;;13.57;;
18574;SDS011;9417;16.484;102.872;2023-06-10T05:03:41;15.68;;;14.23;;
18574;SDS011;9417;16.484;102.872;2023-06-10T05:05:50;15.75;;;14.45;;
18574;SDS011;9417;16.484;102.872;2023-06-10T05:07:58;16.70;;;14.98;;
18574;SDS011;9417;16.484;102.872;2023-06-10T05:10:09;15.02;;;13.60;;
18574;SDS011;9417;16.484;102.872;2023-06-10T05:12:17;14.88;;;13.35;;
18574;SDS011;9417;16.484;102.872;2023-06-10T05:14:25;13.55;;;12.35;;
18574;SDS011;9417;16.484;102.872;2023-06-10T05:16:32;13.38;;;12.05;;
18574;SDS011;9417;16.484;102.872;2023-06-10T05:18:39;21.77;;;20.17;;
18574;SDS011;9417;16.484;102.872;2023-06-10T05:20:47;21.10;;;19.60;;
18574;SDS011;9417;16.484;102.872;2023-06-10T05:22:57;24.10;;;22.40;;
18574;SDS011;9417;16.484;102.872;2023-06-10T05:25:05;21.75;;;20.25;;
18574;SDS011;9417;16.484;102.872;2023-06-10T05:27:14;25.13;;;23.33;;
18574;SDS011;9417;16.484;102.872;2023-06-10T05:29:21;23.98;;;22.33;;
18574;SDS011;9417;16.484;102.872;2023-06-10T05:31:29;21.77;;;20.38;;
18574;SDS011;9417;16.484;102.872;2023-06-10T05:33:37;16.20;;;14.90;;
18574;SDS011;9417;16.484;102.872;2023-06-10T05:35:45;16.40;;;15.10;;
18574;SDS011;9417;16.484;102.872;2023-06-10T05:37:54;11.57;;;10.48;;
18574;SDS011;9417;16.484;102.872;2023-06-10T05:40:05;12.98;;;11.82;;
18574;SDS011;9417;16.484;102.872;2023-06-10T05:42:14;17.33;;;15.77;;
18574;SDS011;9417;16.484;102.872;2023-06-10T05:44:21;16.60;;;15.20;;
18574;SDS011;9417;16.484;102.872;2023-06-10T05:46:29;13.70;;;10.63;;
18574;SDS011;9417;16.484;102.872;2023-06-10T05:48:36;12.07;;;10.65;;
18574;SDS011;9417;16.484;102.872;2023-06-10T05:50:44;13.48;;;12.20;;
18574;SDS011;9417;16.484;102.872;2023-06-10T05:52:52;13.05;;;10.70;;
18574;SDS011;9417;16.484;102.872;2023-06-10T05:55:01;14.07;;;12.65;;
18574;SDS011;9417;16.484;102.872;2023-06-10T05:57:09;13.85;;;12.63;;
18574;SDS011;9417;16.484;102.872;2023-06-10T05:59:17;14.35;;;13.05;;
18574;SDS011;9417;16.484;102.872;2023-06-10T06:01:26;12.85;;;11.75;;
18574;SDS011;9417;16.484;102.872;2023-06-10T06:03:34;12.55;;;10.45;;
18574;SDS011;9417;16.484;102.872;2023-06-10T06:05:41;11.80;;;10.65;;
18574;SDS011;9417;16.484;102.872;2023-06-10T06:07:49;13.35;;;10.88;;
18574;SDS011;9417;16.484;102.872;2023-06-10T06:09:58;12.82;;;11.65;;
18574;SDS011;9417;16.484;102.872;2023-06-10T06:12:06;14.25;;;13.07;;
18574;SDS011;9417;16.484;102.872;2023-06-10T06:14:14;13.95;;;12.93;;
18574;SDS011;9417;16.484;102.872;2023-06-10T06:16:22;15.32;;;14.07;;
18574;SDS011;9417;16.484;102.872;2023-06-10T06:18:29;12.90;;;11.80;;
18574;SDS011;9417;16.484;102.872;2023-06-10T06:20:37;16.02;;;14.57;;
18574;SDS011;9417;16.484;102.872;2023-06-10T06:22:44;11.60;;;10.50;;
18574;SDS011;9417;16.484;102.872;2023-06-10T06:24:51;10.48;;;6.63;;
18574;SDS011;9417;16.484;102.872;2023-06-10T06:27:01;8.52;;;6.57;;
18574;SDS011;9417;16.484;102.872;2023-06-10T06:29:08;9.95;;;6.25;;
18574;SDS011;9417;16.484;102.872;2023-06-10T06:31:16;10.55;;;6.82;;
18574;SDS011;9417;16.484;102.872;2023-06-10T06:33:24;8.00;;;6.47;;
18574;SDS011;9417;16.484;102.872;2023-06-10T06:35:32;12.27;;;6.90;;
18574;SDS011;9417;16.484;102.872;2023-06-10T06:37:40;8.27;;;6.35;;
18574;SDS011;9417;16.484;102.872;2023-06-10T06:39:53;8.15;;;7.20;;
18574;SDS011;9417;16.484;102.872;2023-06-10T06:42:06;7.45;;;6.40;;
18574;SDS011;9417;16.484;102.872;2023-06-10T06:44:37;8.98;;;6.63;;
18574;SDS011;9417;16.484;102.872;2023-06-10T06:46:44;8.20;;;6.20;;
18574;SDS011;9417;16.484;102.872;2023-06-10T06:48:51;13.45;;;7.47;;
18574;SDS011;9417;16.484;102.872;2023-06-10T06:50:59;8.23;;;6.93;;
18574;SDS011;9417;16.484;102.872;2023-06-10T06:53:06;10.88;;;7.10;;
18574;SDS011;9417;16.484;102.872;2023-06-10T06:55:14;12.30;;;7.38;;
18574;SDS011;9417;16.484;102.872;2023-06-10T06:57:23;9.75;;;7.20;;
18574;SDS011;9417;16.484;102.872;2023-06-10T06:59:31;9.20;;;7.45;;
18574;SDS011;9417;16.484;102.872;2023-06-10T07:01:38;8.57;;;7.60;;
18574;SDS011;9417;16.484;102.872;2023-06-10T07:03:45;7.60;;;6.45;;
18574;SDS011;9417;16.484;102.872;2023-06-10T07:05:53;10.52;;;7.10;;
18574;SDS011;9417;16.484;102.872;2023-06-10T07:08:00;10.20;;;7.68;;
18574;SDS011;9417;16.484;102.872;2023-06-10T07:10:08;9.10;;;7.60;;
18574;SDS011;9417;16.484;102.872;2023-06-10T07:12:15;8.73;;;6.85;;
18574;SDS011;9417;16.484;102.872;2023-06-10T07:14:25;10.98;;;7.57;;
18574;SDS011;9417;16.484;102.872;2023-06-10T07:16:32;8.27;;;7.13;;
18574;SDS011;9417;16.484;102.872;2023-06-10T07:18:40;8.43;;;6.72;;
18574;SDS011;9417;16.484;102.872;2023-06-10T07:20:47;9.00;;;7.15;;
18574;SDS011;9417;16.484;102.872;2023-06-10T07:22:55;11.55;;;7.65;;
18574;SDS011;9417;16.484;102.872;2023-06-10T07:25:02;10.35;;;7.93;;
18574;SDS011;9417;16.484;102.872;2023-06-10T07:27:11;9.70;;;7.60;;
18574;SDS011;9417;16.484;102.872;2023-06-10T07:29:18;12.15;;;8.35;;
18574;SDS011;9417;16.484;102.872;2023-06-10T07:31:27;10.20;;;8.45;;
18574;SDS011;9417;16.484;102.872;2023-06-10T07:33:37;9.80;;;7.82;;
18574;SDS011;9417;16.484;102.872;2023-06-10T07:35:45;10.27;;;8.05;;
18574;SDS011;9417;16.484;102.872;2023-06-10T07:37:52;8.77;;;6.85;;
18574;SDS011;9417;16.484;102.872;2023-06-10T07:40:00;10.20;;;7.30;;
18574;SDS011;9417;16.484;102.872;2023-06-10T07:42:07;11.20;;;7.32;;
18574;SDS011;9417;16.484;102.872;2023-06-10T07:44:15;9.30;;;6.53;;
18574;SDS011;9417;16.484;102.872;2023-06-10T07:46:22;11.18;;;7.05;;
18574;SDS011;9417;16.484;102.872;2023-06-10T07:48:32;9.38;;;6.55;;
18574;SDS011;9417;16.484;102.872;2023-06-10T07:50:40;10.13;;;6.72;;
18574;SDS011;9417;16.484;102.872;2023-06-10T07:52:47;8.63;;;6.80;;
18574;SDS011;9417;16.484;102.872;2023-06-10T07:54:54;9.45;;;7.03;;
18574;SDS011;9417;16.484;102.872;2023-06-10T07:57:02;11.15;;;7.25;;
18574;SDS011;9417;16.484;102.872;2023-06-10T07:59:10;9.32;;;6.70;;
18574;SDS011;9417;16.484;102.872;2023-06-10T08:01:17;12.43;;;7.78;;
18574;SDS011;9417;16.484;102.872;2023-06-10T08:03:25;9.32;;;7.13;;
18574;SDS011;9417;16.484;102.872;2023-06-10T08:05:34;9.57;;;6.75;;
18574;SDS011;9417;16.484;102.872;2023-06-10T08:07:42;9.10;;;7.30;;
18574;SDS011;9417;16.484;102.872;2023-06-10T08:09:49;9.68;;;8.05;;
18574;SDS011;9417;16.484;102.872;2023-06-10T08:11:56;9.57;;;7.78;;
18574;SDS011;9417;16.484;102.872;2023-06-10T08:14:04;11.43;;;7.45;;
18574;SDS011;9417;16.484;102.872;2023-06-10T08:16:12;10.15;;;7.40;;
18574;SDS011;9417;16.484;102.872;2023-06-10T08:18:19;10.95;;;7.13;;
18574;SDS011;9417;16.484;102.872;2023-06-10T08:20:27;9.02;;;6.88;;
18574;SDS011;9417;16.484;102.872;2023-06-10T08:22:36;8.68;;;6.93;;
18574;SDS011;9417;16.484;102.872;2023-06-10T08:24:44;9.40;;;6.78;;
18574;SDS011;9417;16.484;102.872;2023-06-10T08:26:52;7.32;;;6.50;;
18574;SDS011;9417;16.484;102.872;2023-06-10T08:29:00;9.48;;;7.25;;
18574;SDS011;9417;16.484;102.872;2023-06-10T08:31:07;10.00;;;6.97;;
18574;SDS011;9417;16.484;102.872;2023-06-10T08:33:15;7.82;;;6.47;;
18574;SDS011;9417;16.484;102.872;2023-06-10T08:35:22;7.90;;;7.07;;
18574;SDS011;9417;16.484;102.872;2023-06-10T08:37:30;11.63;;;7.15;;
18574;SDS011;9417;16.484;102.872;2023-06-10T08:39:39;9.60;;;7.07;;
18574;SDS011;9417;16.484;102.872;2023-06-10T08:41:48;10.80;;;7.03;;
18574;SDS011;9417;16.484;102.872;2023-06-10T08:44:08;8.45;;;6.97;;
18574;SDS011;9417;16.484;102.872;2023-06-10T08:46:16;10.88;;;7.00;;
18574;SDS011;9417;16.484;102.872;2023-06-10T08:48:23;9.98;;;7.20;;
18574;SDS011;9417;16.484;102.872;2023-06-10T08:50:35;9.13;;;7.15;;
18574;SDS011;9417;16.484;102.872;2023-06-10T08:52:44;10.77;;;6.63;;
18574;SDS011;9417;16.484;102.872;2023-06-10T08:54:56;8.73;;;6.75;;
18574;SDS011;9417;16.484;102.872;2023-06-10T08:57:05;11.05;;;7.10;;
18574;SDS011;9417;16.484;102.872;2023-06-10T08:59:13;10.20;;;6.88;;
18574;SDS011;9417;16.484;102.872;2023-06-10T09:01:21;9.80;;;6.38;;
18574;SDS011;9417;16.484;102.872;2023-06-10T09:03:29;10.13;;;7.28;;
18574;SDS011;9417;16.484;102.872;2023-06-10T09:05:38;8.65;;;6.57;;
18574;SDS011;9417;16.484;102.872;2023-06-10T09:07:46;12.80;;;8.30;;
18574;SDS011;9417;16.484;102.872;2023-06-10T09:09:56;13.77;;;9.07;;
18574;SDS011;9417;16.484;102.872;2023-06-10T09:12:06;15.10;;;9.32;;
18574;SDS011;9417;16.484;102.872;2023-06-10T09:14:14;11.32;;;6.40;;
18574;SDS011;9417;16.484;102.872;2023-06-10T09:16:22;13.95;;;6.57;;
18574;SDS011;9417;16.484;102.872;2023-06-10T09:18:30;16.08;;;9.95;;
18574;SDS011;9417;16.484;102.872;2023-06-10T09:20:38;12.10;;;7.75;;
18574;SDS011;9417;16.484;102.872;2023-06-10T09:22:46;18.08;;;8.43;;
18574;SDS011;9417;16.484;102.872;2023-06-10T09:25:03;51.13;;;28.80;;
18574;SDS011;9417;16.484;102.872;2023-06-10T09:27:12;27.20;;;17.67;;
18574;SDS011;9417;16.484;102.872;2023-06-10T09:29:19;13.38;;;8.15;;
18574;SDS011;9417;16.484;102.872;2023-06-10T09:31:27;9.15;;;6.90;;
18574;SDS011;9417;16.484;102.872;2023-06-10T09:33:37;9.98;;;7.28;;
18574;SDS011;9417;16.484;102.872;2023-06-10T09:35:45;12.45;;;7.30;;
18574;SDS011;9417;16.484;102.872;2023-06-10T09:37:54;12.43;;;8.45;;
18574;SDS011;9417;16.484;102.872;2023-06-10T09:40:04;9.70;;;7.93;;
18574;SDS011;9417;16.484;102.872;2023-06-10T09:42:17;8.77;;;7.35;;
18574;SDS011;9417;16.484;102.872;2023-06-10T09:44:25;10.27;;;8.02;;
18574;SDS011;9417;16.484;102.872;2023-06-10T09:46:33;23.88;;;19.70;;
18574;SDS011;9417;16.484;102.872;2023-06-10T09:48:41;25.80;;;18.90;;
18574;SDS011;9417;16.484;102.872;2023-06-10T09:50:49;24.20;;;19.67;;
18574;SDS011;9417;16.484;102.872;2023-06-10T09:52:56;11.45;;;8.40;;
18574;SDS011;9417;16.484;102.872;2023-06-10T09:55:07;13.55;;;8.57;;
18574;SDS011;9417;16.484;102.872;2023-06-10T09:57:16;16.15;;;8.55;;
18574;SDS011;9417;16.484;102.872;2023-06-10T09:59:30;17.73;;;8.63;;
18574;SDS011;9417;16.484;102.872;2023-06-10T10:01:38;13.65;;;8.40;;
18574;SDS011;9417;16.484;102.872;2023-06-10T10:03:46;12.65;;;8.32;;
18574;SDS011;9417;16.484;102.872;2023-06-10T10:05:57;11.10;;;7.78;;
18574;SDS011;9417;16.484;102.872;2023-06-10T10:08:06;10.95;;;7.75;;
18574;SDS011;9417;16.484;102.872;2023-06-10T10:10:15;12.55;;;7.88;;
18574;SDS011;9417;16.484;102.872;2023-06-10T10:12:24;8.63;;;6.07;;
18574;SDS011;9417;16.484;102.872;2023-06-10T10:14:31;9.75;;;6.32;;
18574;SDS011;9417;16.484;102.872;2023-06-10T10:16:41;11.82;;;7.07;;
18574;SDS011;9417;16.484;102.872;2023-06-10T10:18:51;16.05;;;8.40;;
18574;SDS011;9417;16.484;102.872;2023-06-10T10:21:01;11.75;;;6.15;;
18574;SDS011;9417;16.484;102.872;2023-06-10T10:23:14;7.30;;;4.55;;
18574;SDS011;9417;16.484;102.872;2023-06-10T10:25:29;8.68;;;3.72;;
18574;SDS011;9417;16.484;102.872;2023-06-10T10:27:42;6.25;;;4.13;;
18574;SDS011;9417;16.484;102.872;2023-06-10T10:29:54;6.80;;;4.20;;
18574;SDS011;9417;16.484;102.872;2023-06-10T10:32:04;4.85;;;3.45;;
18574;SDS011;9417;16.484;102.872;2023-06-10T10:34:15;4.40;;;3.47;;
18574;SDS011;9417;16.484;102.872;2023-06-10T10:36:25;6.00;;;3.22;;
18574;SDS011;9417;16.484;102.872;2023-06-10T10:38:33;5.78;;;2.92;;
18574;SDS011;9417;16.484;102.872;2023-06-10T10:40:43;5.20;;;3.25;;
18574;SDS011;9417;16.484;102.872;2023-06-10T10:42:52;4.40;;;2.85;;
18574;SDS011;9417;16.484;102.872;2023-06-10T10:45:01;2.75;;;2.42;;
18574;SDS011;9417;16.484;102.872;2023-06-10T10:47:11;3.85;;;2.55;;
18574;SDS011;9417;16.484;102.872;2023-06-10T10:49:19;4.03;;;2.00;;
18574;SDS011;9417;16.484;102.872;2023-06-10T10:51:29;13.10;;;12.20;;
18574;SDS011;9417;16.484;102.872;2023-06-10T10:53:41;3.63;;;2.00;;
18574;SDS011;9417;16.484;102.872;2023-06-10T10:55:59;7.80;;;2.60;;
18574;SDS011;9417;16.484;102.872;2023-06-10T10:58:13;4.80;;;2.60;;
18574;SDS011;9417;16.484;102.872;2023-06-10T11:00:24;7.28;;;2.65;;
18574;SDS011;9417;16.484;102.872;2023-06-10T11:02:36;6.57;;;2.60;;
18574;SDS011;9417;16.484;102.872;2023-06-10T11:04:47;4.97;;;2.03;;
18574;SDS011;9417;16.484;102.872;2023-06-10T11:06:55;7.07;;;2.75;;
18574;SDS011;9417;16.484;102.872;2023-06-10T11:09:27;4.40;;;2.20;;
18574;SDS011;9417;16.484;102.872;2023-06-10T11:11:36;9.68;;;2.45;;
18574;SDS011;9417;16.484;102.872;2023-06-10T11:13:59;6.07;;;2.58;;
18574;SDS011;9417;16.484;102.872;2023-06-10T11:16:14;4.97;;;2.65;;
18574;SDS011;9417;16.484;102.872;2023-06-10T11:18:27;3.97;;;2.20;;
18574;SDS011;9417;16.484;102.872;2023-06-10T11:20:43;5.28;;;2.70;;
18574;SDS011;9417;16.484;102.872;2023-06-10T11:22:59;6.68;;;2.40;;
18574;SDS011;9417;16.484;102.872;2023-06-10T11:25:13;5.97;;;2.10;;
18574;SDS011;9417;16.484;102.872;2023-06-10T11:27:23;4.47;;;2.10;;
18574;SDS011;9417;16.484;102.872;2023-06-10T11:29:30;17.75;;;14.07;;
18574;SDS011;9417;16.484;102.872;2023-06-10T11:31:38;4.70;;;2.30;;
18574;SDS011;9417;16.484;102.872;2023-06-10T11:33:55;4.15;;;2.13;;
18574;SDS011;9417;16.484;102.872;2023-06-10T11:36:06;6.13;;;2.60;;
18574;SDS011;9417;16.484;102.872;2023-06-10T11:38:14;2.88;;;1.95;;
18574;SDS011;9417;16.484;102.872;2023-06-10T11:40:22;4.88;;;2.22;;
18574;SDS011;9417;16.484;102.872;2023-06-10T11:42:31;4.32;;;2.50;;
18574;SDS011;9417;16.484;102.872;2023-06-10T11:44:39;4.75;;;2.35;;
18574;SDS011;9417;16.484;102.872;2023-06-10T11:46:56;3.38;;;2.13;;
18574;SDS011;9417;16.484;102.872;2023-06-10T11:49:03;4.60;;;1.80;;
18574;SDS011;9417;16.484;102.872;2023-06-10T11:51:12;3.35;;;2.08;;
18574;SDS011;9417;16.484;102.872;2023-06-10T11:53:19;4.32;;;1.45;;
18574;SDS011;9417;16.484;102.872;2023-06-10T11:55:39;2.88;;;1.50;;
18574;SDS011;9417;16.484;102.872;2023-06-10T11:57:50;2.28;;;1.40;;
18574;SDS011;9417;16.484;102.872;2023-06-10T12:00:04;3.38;;;1.70;;
18574;SDS011;9417;16.484;102.872;2023-06-10T12:02:15;4.88;;;1.70;;
18574;SDS011;9417;16.484;102.872;2023-06-10T12:04:26;2.80;;;1.77;;
18574;SDS011;9417;16.484;102.872;2023-06-10T12:06:42;4.68;;;1.55;;
18574;SDS011;9417;16.484;102.872;2023-06-10T12:08:51;3.50;;;1.63;;
18574;SDS011;9417;16.484;102.872;2023-06-10T12:11:12;5.65;;;1.67;;
18574;SDS011;9417;16.484;102.872;2023-06-10T12:13:21;2.47;;;1.45;;
18574;SDS011;9417;16.484;102.872;2023-06-10T12:15:29;2.63;;;1.70;;
18574;SDS011;9417;16.484;102.872;2023-06-10T12:17:36;3.17;;;1.58;;
18574;SDS011;9417;16.484;102.872;2023-06-10T12:19:44;2.80;;;1.35;;
18574;SDS011;9417;16.484;102.872;2023-06-10T12:21:52;2.90;;;1.33;;
18574;SDS011;9417;16.484;102.872;2023-06-10T12:24:00;4.57;;;1.50;;
18574;SDS011;9417;16.484;102.872;2023-06-10T12:28:22;2.80;;;1.33;;
18574;SDS011;9417;16.484;102.872;2023-06-10T12:30:31;4.28;;;1.83;;
18574;SDS011;9417;16.484;102.872;2023-06-10T12:32:39;2.90;;;2.10;;
18574;SDS011;9417;16.484;102.872;2023-06-10T12:34:47;6.50;;;1.90;;
18574;SDS011;9417;16.484;102.872;2023-06-10T12:36:55;4.70;;;1.80;;
18574;SDS011;9417;16.484;102.872;2023-06-10T12:39:03;2.40;;;1.92;;
18574;SDS011;9417;16.484;102.872;2023-06-10T12:41:10;2.80;;;1.58;;